Turnerville, Alabama
Current Conditions -  °F | °C
As of 3:56 PM on Tuesday 25 Nov 2014 (Local Time) from KMOB Reporting Station
Overcast Overcast  
Wind Chill: 12°   Ceiling: 11000
Heat Index: 12°   Visibility: 10mi
Dew Point:   Wind: 8mph
Humidity: 49%   Direction: 330°NNW
Pressure: 30.09"   Gusts: NA
Location:  30.9846°N, 88.1229°W
Report Text: KMOB 252156Z 33007KT 10SM OVC110 12/02 A3009 RMK AO2 SLP188 T01220017
Loading
Personal Weather Stations






























Interactive Weather Map New forecast layout! Learn more

10-Day Weather Forecast

Advertisements
Track Severe Weather on mobile